Knox, Maine
Current Conditions -  °F | °C
As of 3:35 AM on Sunday 23 Nov 2014 (Local Time) from KWVL Reporting Station
Overcast Overcast  
Wind Chill: 36°   Ceiling: 3400
Heat Index: 36°   Visibility: 10mi
Dew Point: 18°   Wind: 3mph
Humidity: 48%   Direction: 200°SSW
Pressure: 29.91"   Gusts: NA
Location:  44.5814°N, 69.2435°W
Report Text: KWVL 230835Z 20003KT 10SM OVC034 02/M08 A2991 RMK AO1
Loading
Personal Weather Stations






























Interactive Weather Map New forecast layout! Learn more

10-Day Weather Forecast

Advertisements
Track Severe Weather on mobile